createdAt,value
2022-11-13T00:02:10.594Z,6.80
2022-11-13T00:08:31.674Z,6.80
2022-11-13T00:14:52.489Z,6.80
2022-11-13T00:21:25.192Z,6.70
2022-11-13T00:27:46.178Z,6.70
2022-11-13T00:34:33.071Z,6.70
2022-11-13T00:40:47.513Z,6.70
2022-11-13T00:47:08.060Z,6.70
2022-11-13T00:53:28.512Z,6.70
2022-11-13T00:59:49.235Z,6.70
2022-11-13T01:06:27.664Z,6.70
2022-11-13T01:12:48.900Z,6.70
2022-11-13T01:19:09.805Z,6.70
2022-11-13T01:25:31.326Z,6.60
2022-11-13T01:31:52.123Z,6.60
2022-11-13T01:38:15.205Z,6.60
2022-11-13T01:44:50.962Z,6.50
2022-11-13T01:51:14.782Z,6.50
2022-11-13T01:57:36.034Z,6.50
2022-11-13T02:03:56.409Z,6.50
2022-11-13T02:10:17.140Z,6.40
2022-11-13T02:16:40.304Z,6.40
2022-11-13T02:23:03.358Z,6.30
2022-11-13T02:29:23.866Z,6.30
2022-11-13T02:35:44.613Z,6.40
2022-11-13T02:42:05.515Z,6.40
2022-11-13T02:48:26.936Z,6.40
2022-11-13T02:54:47.954Z,6.30
2022-11-13T03:01:09.294Z,6.30
2022-11-13T03:07:31.005Z,6.30
2022-11-13T03:13:52.173Z,6.20
2022-11-13T03:20:12.884Z,6.20
2022-11-13T03:26:34.230Z,6.20
2022-11-13T03:32:56.422Z,6.20
2022-11-13T03:39:17.079Z,6.20
2022-11-13T03:45:37.922Z,6.20
2022-11-13T03:51:58.933Z,6.10
2022-11-13T03:58:21.402Z,6.10
2022-11-13T04:04:42.416Z,6.10
2022-11-13T04:11:11.363Z,6.10
2022-11-13T04:17:32.120Z,6.10
2022-11-13T04:23:53.693Z,6.20
2022-11-13T04:30:14.303Z,6.10
2022-11-13T04:36:34.864Z,6.00
2022-11-13T04:42:55.642Z,6.00
2022-11-13T04:49:16.045Z,6.00
2022-11-13T04:55:36.631Z,6.00
2022-11-13T05:01:57.819Z,6.10
2022-11-13T05:08:18.612Z,6.10
2022-11-13T05:14:40.775Z,6.10
2022-11-13T05:21:02.344Z,6.10
2022-11-13T05:27:22.820Z,6.20
2022-11-13T05:33:43.754Z,6.40
2022-11-13T05:40:05.347Z,6.50
2022-11-13T05:46:28.347Z,6.70
2022-11-13T05:52:49.170Z,6.90
2022-11-13T05:59:10.128Z,7.40
2022-11-13T06:05:30.958Z,8.70
2022-11-13T06:11:51.609Z,10.20
2022-11-13T06:18:12.584Z,10.10
2022-11-13T06:24:33.374Z,11.40
2022-11-13T06:30:54.095Z,10.50
2022-11-13T06:37:14.694Z,12.90
2022-11-13T06:43:35.413Z,14.50
2022-11-13T06:49:56.160Z,12.00
2022-11-13T06:56:17.772Z,11.40
2022-11-13T07:02:38.452Z,11.30
2022-11-13T07:08:59.308Z,12.20
2022-11-13T07:15:20.124Z,17.30
2022-11-13T07:21:40.721Z,21.00
2022-11-13T07:28:01.324Z,22.40
2022-11-13T07:34:22.374Z,22.70
2022-11-13T07:40:43.011Z,22.30
2022-11-13T07:47:04.227Z,22.70
2022-11-13T07:53:24.824Z,21.30
2022-11-13T07:59:45.557Z,20.30
2022-11-13T08:06:08.086Z,21.10
2022-11-13T08:12:28.827Z,19.50
2022-11-13T08:18:50.470Z,18.90
2022-11-13T08:25:11.174Z,18.30
2022-11-13T08:31:32.233Z,19.30
2022-11-13T08:37:53.061Z,20.20
2022-11-13T08:44:15.129Z,20.80
2022-11-13T08:50:36.123Z,17.70
2022-11-13T08:57:00.731Z,16.60
2022-11-13T09:03:24.042Z,16.10
2022-11-13T09:09:44.872Z,15.80
2022-11-13T09:16:05.900Z,15.60
2022-11-13T09:22:27.120Z,15.50
2022-11-13T09:28:48.064Z,15.50
2022-11-13T09:35:09.112Z,15.40
2022-11-13T09:41:44.147Z,15.50
2022-11-13T09:48:38.446Z,15.70
2022-11-13T09:54:59.884Z,15.70
2022-11-13T10:01:30.312Z,15.70
2022-11-13T10:08:11.543Z,15.80
2022-11-13T10:14:37.272Z,15.70
2022-11-13T10:21:26.955Z,15.90
2022-11-13T10:28:48.340Z,16.00
2022-11-13T10:35:01.972Z,16.10
2022-11-13T10:41:22.984Z,16.30
2022-11-13T10:48:03.791Z,16.30
2022-11-13T10:54:28.516Z,16.60
2022-11-13T11:00:50.114Z,16.90
2022-11-13T11:07:24.047Z,16.80
2022-11-13T11:13:44.842Z,17.40
2022-11-13T11:20:25.879Z,17.60
2022-11-13T11:26:52.527Z,18.30
2022-11-13T11:33:26.165Z,21.90
2022-11-13T11:39:57.606Z,26.10
2022-11-13T11:46:24.473Z,25.90
2022-11-13T11:52:56.394Z,24.70
2022-11-13T11:59:41.005Z,19.40
2022-11-13T12:06:49.774Z,17.80
2022-11-13T12:13:32.262Z,17.20
2022-11-13T12:20:24.190Z,16.70
2022-11-13T12:27:14.485Z,16.30
2022-11-13T12:33:54.555Z,16.10
2022-11-13T12:40:44.733Z,15.90
2022-11-13T12:47:09.262Z,15.80
2022-11-13T12:53:32.313Z,15.80
2022-11-13T12:59:57.584Z,15.60
2022-11-13T13:06:43.082Z,15.50
2022-11-13T13:13:30.352Z,15.40
2022-11-13T13:20:02.239Z,15.30
2022-11-13T13:26:28.611Z,15.10
2022-11-13T13:33:15.729Z,15.00
2022-11-13T13:39:55.232Z,14.90
2022-11-13T13:46:24.779Z,14.70
2022-11-13T13:52:55.313Z,14.60
2022-11-13T13:59:20.345Z,14.40
2022-11-13T14:05:41.076Z,14.20
2022-11-13T14:12:09.272Z,14.20
2022-11-13T14:18:31.928Z,14.00
2022-11-13T14:24:56.694Z,13.70
2022-11-13T14:31:17.776Z,13.60
2022-11-13T14:37:40.313Z,13.50
2022-11-13T14:44:01.423Z,13.40
2022-11-13T14:50:24.314Z,13.20
2022-11-13T14:56:45.212Z,13.00
2022-11-13T15:03:07.689Z,12.90
2022-11-13T15:09:31.158Z,12.70
2022-11-13T15:15:51.878Z,12.60
2022-11-13T15:22:26.443Z,12.30
2022-11-13T15:28:47.916Z,12.20
2022-11-13T15:35:15.237Z,12.10
2022-11-13T15:41:36.588Z,11.90
2022-11-13T15:47:57.468Z,11.80
2022-11-13T15:54:37.577Z,11.70
2022-11-13T16:00:58.361Z,11.50
2022-11-13T16:07:28.127Z,11.40
2022-11-13T16:13:49.287Z,11.40
2022-11-13T16:20:13.114Z,11.30
2022-11-13T16:26:34.006Z,11.20
2022-11-13T16:32:54.800Z,11.10
2022-11-13T16:39:17.234Z,11.00
2022-11-13T16:45:38.881Z,10.80
2022-11-13T16:51:59.658Z,10.70
2022-11-13T16:58:20.469Z,10.60
2022-11-13T17:04:41.648Z,10.50
2022-11-13T17:11:02.465Z,10.40
2022-11-13T17:17:23.953Z,10.40
2022-11-13T17:23:44.970Z,10.40
2022-11-13T17:30:06.519Z,10.30
2022-11-13T17:36:27.273Z,10.20
2022-11-13T17:42:49.774Z,10.20
2022-11-13T17:49:10.872Z,10.10
2022-11-13T17:55:31.707Z,10.00
2022-11-13T18:01:52.857Z,9.80
2022-11-13T18:08:14.116Z,9.70
2022-11-13T18:14:34.657Z,9.70
2022-11-13T18:20:55.690Z,9.70
2022-11-13T18:27:16.768Z,9.70
2022-11-13T18:33:37.766Z,9.50
2022-11-13T18:39:59.209Z,9.50
2022-11-13T18:46:21.880Z,9.50
2022-11-13T18:52:43.279Z,9.40
2022-11-13T18:59:04.275Z,9.30
2022-11-13T19:05:25.429Z,9.20
2022-11-13T19:11:46.459Z,9.20
2022-11-13T19:18:07.798Z,9.10
2022-11-13T19:24:28.962Z,9.10
2022-11-13T19:30:50.096Z,9.00
2022-11-13T19:37:14.916Z,9.00
2022-11-13T19:43:40.915Z,8.90
2022-11-13T19:50:01.929Z,8.80
2022-11-13T19:56:24.015Z,8.80
2022-11-13T20:02:44.936Z,9.00
2022-11-13T20:09:06.237Z,9.00
2022-11-13T20:15:27.009Z,8.90
2022-11-13T20:21:47.935Z,8.90
2022-11-13T20:28:08.860Z,8.80
2022-11-13T20:34:29.923Z,8.70
2022-11-13T20:40:51.462Z,8.50
2022-11-13T20:47:12.397Z,8.40
2022-11-13T20:53:34.136Z,8.30
2022-11-13T20:59:55.158Z,8.30
2022-11-13T21:06:21.419Z,8.20
2022-11-13T21:12:42.174Z,8.30
2022-11-13T21:19:03.360Z,8.20
2022-11-13T21:25:23.890Z,8.20
2022-11-13T21:31:44.776Z,8.20
2022-11-13T21:38:05.830Z,8.10
2022-11-13T21:44:26.816Z,8.10
2022-11-13T21:50:48.050Z,8.00
2022-11-13T21:57:09.018Z,8.00
2022-11-13T22:03:30.091Z,8.00
2022-11-13T22:09:51.018Z,7.90
2022-11-13T22:16:13.134Z,7.90
2022-11-13T22:22:34.134Z,7.80
2022-11-13T22:28:55.593Z,7.80
2022-11-13T22:35:16.330Z,7.80
2022-11-13T22:41:37.292Z,7.70
2022-11-13T22:47:58.509Z,7.70
2022-11-13T22:54:19.061Z,7.60
2022-11-13T23:00:39.872Z,7.60
2022-11-13T23:07:00.571Z,7.50
2022-11-13T23:13:21.369Z,7.50
2022-11-13T23:19:42.250Z,7.30
2022-11-13T23:26:03.042Z,7.30
2022-11-13T23:32:23.838Z,7.30
2022-11-13T23:38:44.651Z,7.10
2022-11-13T23:45:06.280Z,7.10
2022-11-13T23:51:27.117Z,7.00
2022-11-13T23:57:47.939Z,7.00
